Change the Weather History Date:

Thursday, February 7, 2013

  Actual Average Record
Temperature  
Mean Temperature 37 °F -  
Max Temperature 50 °F 40 °F 51 °F (2002)
Min Temperature 24 °F 24 °F -1 °F (2014)
Degree Days  
Heating Degree Days 28    
Moisture  
Dew Point 27 °F    
Average Humidity 66    
Maximum Humidity 81    
Minimum Humidity 47    
Precipitation  
Precipitation 0.00 in - - ()
Sea Level Pressure  
Sea Level Pressure 30.07 in    
Wind  
Wind Speed 4 mph (East)    
Max Wind Speed 9 mph    
Max Gust Speed -    
Visibility 9 miles    
Events      
Averages and records for this station are not official NWS values.
T = Trace of Precipitation, MM = Missing Value Source: NWS Daily Summary

Daily Weather History Graph

Daily Weather History Graph

Search for Another Location

Airport or City:

Trip Planner

Search our weather history database for the weather conditions in past years. The results will help you decide how hot, cold, wet, or windy it might be!

Date:

Astronomy

Feb. 07, 2013 Rise Set
Actual Time 7:33 AM EST 5:58 PM EST
Civil Twilight 7:05 AM EST 6:26 PM EST
Nautical Twilight 6:33 AM EST 6:58 PM EST
Astronomical Twilight 6:01 AM EST 7:30 PM EST
Moon 5:11 AM EST (2/7) 3:22 PM EST (2/7)
Length of Visible Light 11h 21m
Length of Day
10h 25m
Waning Crescent, 9% of the Moon is Illuminated
Feb 7
Waning Crescent
Feb 10
New
Feb 17
First Quarter
Feb 25
Full
Mar 4
Last Quarter

Hourly Weather History & Observations

Time (EST) Temp. Windchill Dew Point Humidity Pressure Visibility Wind Dir Wind Speed Gust Speed Precip Events Conditions
12:15 AM 24.4 °F 20.1 °F 18.5 °F 78% 30.25 in 7.0 mi SSW 3.5 mph - N/A   Clear
12:35 AM 24.6 °F - 18.7 °F 78% 30.24 in 7.0 mi Calm Calm - N/A   Clear
12:55 AM 24.4 °F 18.6 °F 19.2 °F 81% 30.23 in 7.0 mi SE 4.6 mph - N/A   Clear
1:15 AM 25.5 °F - 19.4 °F 78% 30.22 in 7.0 mi Calm Calm - N/A   Clear
1:35 AM 25.9 °F - 19.8 °F 78% 30.21 in 7.0 mi Calm Calm - N/A   Clear
1:55 AM 27.0 °F - 20.5 °F 77% 30.21 in 7.0 mi Calm Calm - N/A   Clear
2:15 AM 27.3 °F 22.0 °F 21.2 °F 78% 30.21 in 7.0 mi North 4.6 mph - N/A   Clear
2:35 AM 28.0 °F - 21.4 °F 76% 30.21 in 7.0 mi Calm Calm - N/A   Clear
2:55 AM 27.9 °F - 21.6 °F 77% 30.21 in 7.0 mi Calm Calm - N/A   Clear
3:15 AM 27.9 °F 22.6 °F 21.6 °F 77% 30.21 in 7.0 mi North 4.6 mph - N/A   Clear
3:35 AM 28.4 °F 24.6 °F 22.1 °F 77% 30.21 in 7.0 mi NNE 3.5 mph - N/A   Clear
3:55 AM 28.9 °F 22.8 °F 22.6 °F 77% 30.21 in 7.0 mi NE 5.8 mph - N/A   Clear
4:15 AM 28.9 °F 21.9 °F 22.8 °F 78% 30.21 in 7.0 mi NE 6.9 mph - N/A   Mostly Cloudy
4:35 AM 29.1 °F 22.1 °F 22.8 °F 77% 30.21 in 7.0 mi ENE 6.9 mph - N/A   Overcast
4:55 AM 29.3 °F 21.5 °F 22.8 °F 77% 30.21 in 7.0 mi ENE 8.1 mph - N/A   Overcast
5:15 AM 29.7 °F 22.0 °F 22.8 °F 76% 30.21 in 7.0 mi ENE 8.1 mph - N/A   Mostly Cloudy
5:35 AM 29.7 °F 22.8 °F 22.8 °F 76% 30.20 in 7.0 mi ENE 6.9 mph - N/A   Scattered Clouds
5:55 AM 29.8 °F 23.0 °F 23.0 °F 76% 30.19 in 7.0 mi ENE 6.9 mph - N/A   Clear
6:15 AM 29.8 °F 23.9 °F 23.2 °F 76% 30.18 in 7.0 mi ENE 5.8 mph - N/A   Mostly Cloudy
6:35 AM 30.2 °F 24.3 °F 23.7 °F 77% 30.19 in 7.0 mi ENE 5.8 mph - N/A   Overcast
6:55 AM 30.2 °F - 23.5 °F 76% 30.20 in 10.0 mi Calm Calm - N/A   Mostly Cloudy
7:15 AM 30.0 °F 23.2 °F 23.7 °F 77% 30.18 in 7.0 mi ENE 6.9 mph - N/A   Scattered Clouds
7:35 AM 30.2 °F 26.7 °F 23.9 °F 77% 30.19 in 7.0 mi NE 3.5 mph - N/A   Mostly Cloudy
7:55 AM 30.4 °F 25.6 °F 24.4 °F 79% 30.20 in 7.0 mi NE 4.6 mph - N/A   Mostly Cloudy
8:15 AM 30.9 °F 27.5 °F 24.8 °F 78% 30.20 in 7.0 mi ENE 3.5 mph - N/A   Overcast
8:35 AM 31.5 °F 24.9 °F 24.8 °F 76% 30.18 in 7.0 mi East 6.9 mph - N/A   Mostly Cloudy
8:55 AM 31.8 °F 27.3 °F 25.2 °F 76% 30.18 in 7.0 mi ENE 4.6 mph - N/A   Mostly Cloudy
9:15 AM 32.0 °F 25.6 °F 25.5 °F 77% 30.17 in 7.0 mi ENE 6.9 mph - N/A   Mostly Cloudy
9:35 AM 32.5 °F 25.5 °F 25.7 °F 76% 30.15 in 7.0 mi ENE 8.1 mph - N/A   Mostly Cloudy
9:55 AM 33.6 °F 26.8 °F 25.9 °F 73% 30.14 in 7.0 mi ENE 8.1 mph - N/A   Overcast
10:15 AM 35.1 °F 31.0 °F 26.2 °F 70% 30.13 in 10.0 mi SE 4.6 mph - N/A   Overcast
10:35 AM 36.9 °F - 26.6 °F 66% 30.14 in 10.0 mi Calm Calm - N/A   Scattered Clouds
10:55 AM 38.7 °F 35.2 °F 27.0 °F 63% 30.14 in 10.0 mi SE 4.6 mph - N/A   Clear
11:15 AM 39.4 °F 37.2 °F 27.1 °F 62% 30.13 in 10.0 mi ENE 3.5 mph - N/A   Clear
11:35 AM 40.1 °F 38.0 °F 27.5 °F 61% 30.12 in 10.0 mi East 3.5 mph - N/A   Clear
11:55 AM 41.2 °F 38.2 °F 27.5 °F 58% 30.11 in 10.0 mi NE 4.6 mph - N/A   Clear
12:15 PM 42.1 °F 39.2 °F 28.4 °F 58% 30.09 in 10.0 mi ENE 4.6 mph - N/A   Clear
12:35 PM 43.0 °F 39.5 °F 28.4 °F 56% 30.08 in 10.0 mi East 5.8 mph - N/A   Clear
12:55 PM 44.2 °F 41.0 °F 29.5 °F 56% 30.07 in 10.0 mi ENE 5.8 mph - N/A   Clear
1:15 PM 45.3 °F 42.3 °F 30.0 °F 55% 30.06 in 10.0 mi ENE 5.8 mph - N/A   Clear
1:35 PM 45.9 °F 42.9 °F 30.0 °F 54% 30.05 in 10.0 mi NE 5.8 mph - N/A   Clear
1:55 PM 46.6 °F - 30.6 °F 54% 30.03 in 10.0 mi ENE 6.9 mph - N/A   Clear
2:15 PM 47.1 °F - 31.3 °F 54% 30.01 in 10.0 mi ENE 8.1 mph - N/A   Clear
2:35 PM 48.0 °F - 31.6 °F 53% 30.00 in 10.0 mi East 6.9 mph - N/A   Clear
2:55 PM 49.1 °F - 31.6 °F 51% 29.99 in 10.0 mi East 8.1 mph - N/A   Clear
3:15 PM 49.6 °F - 31.8 °F 50% 29.99 in 10.0 mi ENE 8.1 mph - N/A   Clear
3:35 PM 50.0 °F - 32.0 °F 50% 29.98 in 10.0 mi ENE 6.9 mph - N/A   Clear
3:55 PM 50.4 °F - 31.6 °F 49% 29.98 in 10.0 mi ENE 6.9 mph - N/A   Clear
4:15 PM 50.7 °F - 31.3 °F 47% 29.98 in 10.0 mi ENE 6.9 mph - N/A   Clear
4:35 PM 50.5 °F - 31.5 °F 48% 29.97 in 10.0 mi ENE 5.8 mph - N/A   Clear
4:55 PM 50.0 °F - 31.5 °F 49% 29.96 in 10.0 mi ENE 5.8 mph - N/A   Clear
5:15 PM 49.5 °F - 31.6 °F 50% 29.95 in 10.0 mi East 4.6 mph - N/A   Clear
5:35 PM 48.0 °F - 31.5 °F 53% 29.95 in 10.0 mi East 4.6 mph - N/A   Clear
5:55 PM 46.6 °F - 30.9 °F 54% 29.95 in 10.0 mi East 3.5 mph - N/A   Clear
6:15 PM 46.9 °F - 30.6 °F 53% 29.95 in 10.0 mi East 3.5 mph - N/A   Clear
6:35 PM 44.4 °F 40.5 °F 30.6 °F 58% 29.94 in 10.0 mi ESE 6.9 mph - N/A   Clear
6:55 PM 43.5 °F 40.1 °F 29.8 °F 59% 29.94 in 10.0 mi SE 5.8 mph - N/A   Clear
7:15 PM 44.4 °F 42.0 °F 29.1 °F 55% 29.93 in 10.0 mi ESE 4.6 mph - N/A   Clear
7:35 PM 43.5 °F 41.9 °F 28.8 °F 56% 29.93 in 10.0 mi East 3.5 mph - N/A   Clear
7:55 PM 42.1 °F 39.2 °F 28.9 °F 60% 29.92 in 10.0 mi East 4.6 mph - N/A   Clear
8:15 PM 42.4 °F 40.7 °F 28.9 °F 59% 29.91 in 10.0 mi East 3.5 mph - N/A   Clear
8:35 PM 42.6 °F - 29.1 °F 59% 29.90 in 10.0 mi Calm Calm - N/A   Clear
8:55 PM 42.8 °F - 29.3 °F 59% 29.90 in 10.0 mi Calm Calm - N/A   Clear
9:15 PM 42.1 °F - 29.3 °F 61% 29.90 in 10.0 mi Calm Calm - N/A   Clear
9:35 PM 42.3 °F 40.5 °F 29.8 °F 61% 29.89 in 10.0 mi SE 3.5 mph - N/A   Clear
9:55 PM 42.3 °F 38.6 °F 30.2 °F 62% 29.88 in 10.0 mi SE 5.8 mph - N/A   Clear
10:15 PM 41.9 °F 36.9 °F 30.4 °F 64% 29.86 in 10.0 mi SE 8.1 mph - N/A   Clear
10:35 PM 41.9 °F 36.3 °F 30.7 °F 65% 29.86 in 10.0 mi SE 9.2 mph - N/A   Clear
10:55 PM 41.7 °F 38.0 °F 31.1 °F 66% 29.85 in 10.0 mi SSE 5.8 mph - N/A   Clear
11:15 PM 41.5 °F 36.4 °F 31.3 °F 67% 29.85 in 10.0 mi SSE 8.1 mph - N/A   Clear
11:35 PM 41.2 °F 35.5 °F 31.8 °F 69% 29.83 in 10.0 mi SSE 9.2 mph - N/A   Clear
11:55 PM 41.7 °F 36.1 °F 32.0 °F 68% 29.83 in 10.0 mi SSE 9.2 mph - N/A   Clear